sensor_id;sensor_type;location;lat;lon;timestamp;P1;durP1;ratioP1;P2;durP2;ratioP2
23001;SDS011;11667;51.706;4.856;2022-10-16T00:00:06;7.85;;;3.90;;
23001;SDS011;11667;51.706;4.856;2022-10-16T00:02:36;6.95;;;3.77;;
23001;SDS011;11667;51.706;4.856;2022-10-16T00:05:06;6.87;;;3.62;;
23001;SDS011;11667;51.706;4.856;2022-10-16T00:07:35;7.55;;;3.77;;
23001;SDS011;11667;51.706;4.856;2022-10-16T00:10:05;8.68;;;3.65;;
23001;SDS011;11667;51.706;4.856;2022-10-16T00:12:35;9.58;;;3.90;;
23001;SDS011;11667;51.706;4.856;2022-10-16T00:15:04;10.82;;;4.20;;
23001;SDS011;11667;51.706;4.856;2022-10-16T00:17:34;7.03;;;3.98;;
23001;SDS011;11667;51.706;4.856;2022-10-16T00:20:04;5.37;;;3.70;;
23001;SDS011;11667;51.706;4.856;2022-10-16T00:22:34;7.33;;;3.90;;
23001;SDS011;11667;51.706;4.856;2022-10-16T00:25:03;8.05;;;3.60;;
23001;SDS011;11667;51.706;4.856;2022-10-16T00:27:33;7.58;;;3.58;;
23001;SDS011;11667;51.706;4.856;2022-10-16T00:30:03;5.53;;;3.17;;
23001;SDS011;11667;51.706;4.856;2022-10-16T00:32:33;7.35;;;3.50;;
23001;SDS011;11667;51.706;4.856;2022-10-16T00:35:03;7.58;;;3.42;;
23001;SDS011;11667;51.706;4.856;2022-10-16T00:37:33;7.78;;;3.00;;
23001;SDS011;11667;51.706;4.856;2022-10-16T00:40:02;5.85;;;3.50;;
23001;SDS011;11667;51.706;4.856;2022-10-16T00:42:32;6.40;;;3.42;;
23001;SDS011;11667;51.706;4.856;2022-10-16T00:45:02;10.00;;;3.40;;
23001;SDS011;11667;51.706;4.856;2022-10-16T00:47:36;6.97;;;3.20;;
23001;SDS011;11667;51.706;4.856;2022-10-16T00:50:08;6.58;;;3.22;;
23001;SDS011;11667;51.706;4.856;2022-10-16T00:52:47;6.75;;;3.35;;
23001;SDS011;11667;51.706;4.856;2022-10-16T00:55:18;7.50;;;3.22;;
23001;SDS011;11667;51.706;4.856;2022-10-16T00:57:48;6.97;;;3.40;;
23001;SDS011;11667;51.706;4.856;2022-10-16T01:00:19;5.03;;;3.35;;
23001;SDS011;11667;51.706;4.856;2022-10-16T01:02:59;6.80;;;3.40;;
23001;SDS011;11667;51.706;4.856;2022-10-16T01:05:26;7.75;;;3.55;;
23001;SDS011;11667;51.706;4.856;2022-10-16T01:08:01;4.75;;;2.98;;
23001;SDS011;11667;51.706;4.856;2022-10-16T01:10:36;4.72;;;3.15;;
23001;SDS011;11667;51.706;4.856;2022-10-16T01:13:16;6.08;;;3.10;;
23001;SDS011;11667;51.706;4.856;2022-10-16T01:16:31;6.20;;;3.20;;
23001;SDS011;11667;51.706;4.856;2022-10-16T01:18:43;6.97;;;3.05;;
23001;SDS011;11667;51.706;4.856;2022-10-16T01:26:48;6.20;;;3.40;;
23001;SDS011;11667;51.706;4.856;2022-10-16T01:29:39;7.08;;;3.30;;
23001;SDS011;11667;51.706;4.856;2022-10-16T01:32:40;4.15;;;2.75;;
23001;SDS011;11667;51.706;4.856;2022-10-16T01:35:42;5.72;;;3.20;;
23001;SDS011;11667;51.706;4.856;2022-10-16T01:40:39;5.22;;;3.10;;
23001;SDS011;11667;51.706;4.856;2022-10-16T01:43:14;4.17;;;2.90;;
23001;SDS011;11667;51.706;4.856;2022-10-16T01:45:45;6.67;;;3.30;;
23001;SDS011;11667;51.706;4.856;2022-10-16T01:48:16;5.17;;;2.80;;
23001;SDS011;11667;51.706;4.856;2022-10-16T01:51:07;4.62;;;2.85;;
23001;SDS011;11667;51.706;4.856;2022-10-16T01:53:31;5.58;;;3.22;;
23001;SDS011;11667;51.706;4.856;2022-10-16T01:56:01;3.70;;;2.75;;
23001;SDS011;11667;51.706;4.856;2022-10-16T01:58:33;4.50;;;2.60;;
23001;SDS011;11667;51.706;4.856;2022-10-16T02:01:03;3.92;;;2.83;;
23001;SDS011;11667;51.706;4.856;2022-10-16T02:03:34;4.75;;;2.90;;
23001;SDS011;11667;51.706;4.856;2022-10-16T02:06:04;7.40;;;2.85;;
23001;SDS011;11667;51.706;4.856;2022-10-16T02:08:33;3.02;;;2.40;;
23001;SDS011;11667;51.706;4.856;2022-10-16T02:11:03;4.72;;;2.87;;
23001;SDS011;11667;51.706;4.856;2022-10-16T02:13:33;5.15;;;2.52;;
23001;SDS011;11667;51.706;4.856;2022-10-16T02:16:08;4.42;;;2.55;;
23001;SDS011;11667;51.706;4.856;2022-10-16T02:18:39;6.50;;;2.62;;
23001;SDS011;11667;51.706;4.856;2022-10-16T02:23:56;3.70;;;2.50;;
23001;SDS011;11667;51.706;4.856;2022-10-16T02:26:36;5.20;;;2.50;;
23001;SDS011;11667;51.706;4.856;2022-10-16T02:29:12;3.92;;;2.50;;
23001;SDS011;11667;51.706;4.856;2022-10-16T02:31:43;4.03;;;2.30;;
23001;SDS011;11667;51.706;4.856;2022-10-16T02:34:14;4.85;;;2.42;;
23001;SDS011;11667;51.706;4.856;2022-10-16T02:36:45;4.05;;;2.30;;
23001;SDS011;11667;51.706;4.856;2022-10-16T02:39:16;4.65;;;2.30;;
23001;SDS011;11667;51.706;4.856;2022-10-16T02:41:47;6.50;;;2.50;;
23001;SDS011;11667;51.706;4.856;2022-10-16T02:44:16;3.30;;;2.20;;
23001;SDS011;11667;51.706;4.856;2022-10-16T02:46:46;4.33;;;2.27;;
23001;SDS011;11667;51.706;4.856;2022-10-16T02:49:15;2.70;;;2.12;;
23001;SDS011;11667;51.706;4.856;2022-10-16T02:51:45;4.30;;;2.22;;
23001;SDS011;11667;51.706;4.856;2022-10-16T02:54:14;4.03;;;2.08;;
23001;SDS011;11667;51.706;4.856;2022-10-16T02:56:44;3.65;;;2.12;;
23001;SDS011;11667;51.706;4.856;2022-10-16T02:59:13;3.58;;;2.27;;
23001;SDS011;11667;51.706;4.856;2022-10-16T03:01:42;3.80;;;2.10;;
23001;SDS011;11667;51.706;4.856;2022-10-16T03:04:12;3.42;;;2.35;;
23001;SDS011;11667;51.706;4.856;2022-10-16T03:06:41;4.45;;;2.40;;
23001;SDS011;11667;51.706;4.856;2022-10-16T03:09:10;3.85;;;2.02;;
23001;SDS011;11667;51.706;4.856;2022-10-16T03:11:40;5.80;;;2.20;;
23001;SDS011;11667;51.706;4.856;2022-10-16T03:14:09;5.67;;;2.37;;
23001;SDS011;11667;51.706;4.856;2022-10-16T03:16:37;4.37;;;2.22;;
23001;SDS011;11667;51.706;4.856;2022-10-16T03:19:06;4.97;;;2.10;;
23001;SDS011;11667;51.706;4.856;2022-10-16T03:21:35;3.87;;;2.25;;
23001;SDS011;11667;51.706;4.856;2022-10-16T03:24:05;7.70;;;2.30;;
23001;SDS011;11667;51.706;4.856;2022-10-16T03:26:34;4.22;;;2.20;;
23001;SDS011;11667;51.706;4.856;2022-10-16T03:29:03;7.17;;;2.50;;
23001;SDS011;11667;51.706;4.856;2022-10-16T03:31:33;3.98;;;2.22;;
23001;SDS011;11667;51.706;4.856;2022-10-16T03:34:03;4.25;;;2.30;;
23001;SDS011;11667;51.706;4.856;2022-10-16T03:36:32;5.80;;;2.50;;
23001;SDS011;11667;51.706;4.856;2022-10-16T03:39:02;4.58;;;2.20;;
23001;SDS011;11667;51.706;4.856;2022-10-16T03:41:31;5.15;;;2.30;;
23001;SDS011;11667;51.706;4.856;2022-10-16T03:44:01;3.90;;;2.17;;
23001;SDS011;11667;51.706;4.856;2022-10-16T03:46:30;4.00;;;2.67;;
23001;SDS011;11667;51.706;4.856;2022-10-16T03:48:59;4.70;;;2.60;;
23001;SDS011;11667;51.706;4.856;2022-10-16T03:51:30;4.35;;;2.20;;
23001;SDS011;11667;51.706;4.856;2022-10-16T03:54:00;4.80;;;2.40;;
23001;SDS011;11667;51.706;4.856;2022-10-16T03:56:29;5.30;;;2.45;;
23001;SDS011;11667;51.706;4.856;2022-10-16T03:58:59;4.42;;;2.40;;
23001;SDS011;11667;51.706;4.856;2022-10-16T04:01:28;4.35;;;2.50;;
23001;SDS011;11667;51.706;4.856;2022-10-16T04:03:58;3.90;;;2.22;;
23001;SDS011;11667;51.706;4.856;2022-10-16T04:06:27;6.30;;;2.60;;
23001;SDS011;11667;51.706;4.856;2022-10-16T04:08:56;4.62;;;2.50;;
23001;SDS011;11667;51.706;4.856;2022-10-16T04:11:25;6.87;;;2.70;;
23001;SDS011;11667;51.706;4.856;2022-10-16T04:13:55;3.83;;;2.72;;
23001;SDS011;11667;51.706;4.856;2022-10-16T04:16:24;4.67;;;2.62;;
23001;SDS011;11667;51.706;4.856;2022-10-16T04:18:54;5.78;;;2.72;;
23001;SDS011;11667;51.706;4.856;2022-10-16T04:21:23;3.85;;;2.60;;
23001;SDS011;11667;51.706;4.856;2022-10-16T04:23:52;5.12;;;2.77;;
23001;SDS011;11667;51.706;4.856;2022-10-16T04:26:21;4.05;;;2.70;;
23001;SDS011;11667;51.706;4.856;2022-10-16T04:28:51;3.40;;;2.40;;
23001;SDS011;11667;51.706;4.856;2022-10-16T04:31:21;6.08;;;2.60;;
23001;SDS011;11667;51.706;4.856;2022-10-16T04:33:51;8.70;;;2.87;;
23001;SDS011;11667;51.706;4.856;2022-10-16T04:36:20;5.15;;;2.65;;
23001;SDS011;11667;51.706;4.856;2022-10-16T04:38:52;5.72;;;2.98;;
23001;SDS011;11667;51.706;4.856;2022-10-16T04:41:21;4.60;;;3.10;;
23001;SDS011;11667;51.706;4.856;2022-10-16T04:43:51;6.83;;;2.85;;
23001;SDS011;11667;51.706;4.856;2022-10-16T04:46:20;5.17;;;2.70;;
23001;SDS011;11667;51.706;4.856;2022-10-16T04:48:49;6.20;;;2.90;;
23001;SDS011;11667;51.706;4.856;2022-10-16T04:51:19;3.92;;;2.50;;
23001;SDS011;11667;51.706;4.856;2022-10-16T04:53:48;5.05;;;3.12;;
23001;SDS011;11667;51.706;4.856;2022-10-16T04:56:17;8.03;;;2.90;;
23001;SDS011;11667;51.706;4.856;2022-10-16T04:58:48;4.17;;;2.72;;
23001;SDS011;11667;51.706;4.856;2022-10-16T05:01:17;8.23;;;3.10;;
23001;SDS011;11667;51.706;4.856;2022-10-16T05:03:46;7.05;;;3.12;;
23001;SDS011;11667;51.706;4.856;2022-10-16T05:06:16;5.78;;;3.02;;
23001;SDS011;11667;51.706;4.856;2022-10-16T05:08:45;11.88;;;3.10;;
23001;SDS011;11667;51.706;4.856;2022-10-16T05:11:14;6.42;;;3.02;;
23001;SDS011;11667;51.706;4.856;2022-10-16T05:13:43;7.10;;;3.20;;
23001;SDS011;11667;51.706;4.856;2022-10-16T05:16:13;7.92;;;3.00;;
23001;SDS011;11667;51.706;4.856;2022-10-16T05:18:43;4.05;;;2.70;;
23001;SDS011;11667;51.706;4.856;2022-10-16T05:21:12;5.87;;;3.10;;
23001;SDS011;11667;51.706;4.856;2022-10-16T05:23:41;5.15;;;2.90;;
23001;SDS011;11667;51.706;4.856;2022-10-16T05:26:11;4.53;;;3.05;;
23001;SDS011;11667;51.706;4.856;2022-10-16T05:28:40;9.65;;;3.27;;
23001;SDS011;11667;51.706;4.856;2022-10-16T05:31:10;6.25;;;3.40;;
23001;SDS011;11667;51.706;4.856;2022-10-16T05:33:40;5.92;;;3.25;;
23001;SDS011;11667;51.706;4.856;2022-10-16T05:36:10;6.10;;;3.02;;
23001;SDS011;11667;51.706;4.856;2022-10-16T05:38:40;5.60;;;3.55;;
23001;SDS011;11667;51.706;4.856;2022-10-16T05:41:09;6.10;;;3.12;;
23001;SDS011;11667;51.706;4.856;2022-10-16T05:43:39;7.22;;;3.25;;
23001;SDS011;11667;51.706;4.856;2022-10-16T05:46:08;5.45;;;3.10;;
23001;SDS011;11667;51.706;4.856;2022-10-16T05:48:37;5.65;;;3.30;;
23001;SDS011;11667;51.706;4.856;2022-10-16T05:51:08;7.33;;;3.33;;
23001;SDS011;11667;51.706;4.856;2022-10-16T05:53:39;5.95;;;3.65;;
23001;SDS011;11667;51.706;4.856;2022-10-16T05:56:10;6.15;;;2.98;;
23001;SDS011;11667;51.706;4.856;2022-10-16T05:58:40;7.35;;;3.40;;
23001;SDS011;11667;51.706;4.856;2022-10-16T06:01:12;7.60;;;3.42;;
23001;SDS011;11667;51.706;4.856;2022-10-16T06:03:43;7.00;;;3.45;;
23001;SDS011;11667;51.706;4.856;2022-10-16T06:06:14;5.58;;;3.15;;
23001;SDS011;11667;51.706;4.856;2022-10-16T06:08:44;7.10;;;3.02;;
23001;SDS011;11667;51.706;4.856;2022-10-16T06:11:16;4.87;;;3.12;;
23001;SDS011;11667;51.706;4.856;2022-10-16T06:13:50;9.55;;;3.45;;
23001;SDS011;11667;51.706;4.856;2022-10-16T06:16:21;6.22;;;3.45;;
23001;SDS011;11667;51.706;4.856;2022-10-16T06:18:51;6.53;;;3.10;;
23001;SDS011;11667;51.706;4.856;2022-10-16T06:21:22;5.08;;;3.42;;
23001;SDS011;11667;51.706;4.856;2022-10-16T06:23:53;6.12;;;3.50;;
23001;SDS011;11667;51.706;4.856;2022-10-16T06:26:24;7.37;;;3.10;;
23001;SDS011;11667;51.706;4.856;2022-10-16T06:28:55;6.67;;;3.10;;
23001;SDS011;11667;51.706;4.856;2022-10-16T06:31:26;5.75;;;2.75;;
23001;SDS011;11667;51.706;4.856;2022-10-16T06:33:57;6.30;;;3.27;;
23001;SDS011;11667;51.706;4.856;2022-10-16T06:36:27;7.90;;;3.00;;
23001;SDS011;11667;51.706;4.856;2022-10-16T06:38:56;8.70;;;3.30;;
23001;SDS011;11667;51.706;4.856;2022-10-16T06:41:26;6.22;;;3.25;;
23001;SDS011;11667;51.706;4.856;2022-10-16T06:43:56;7.03;;;3.70;;
23001;SDS011;11667;51.706;4.856;2022-10-16T06:46:25;5.92;;;3.30;;
23001;SDS011;11667;51.706;4.856;2022-10-16T06:48:55;7.17;;;3.25;;
23001;SDS011;11667;51.706;4.856;2022-10-16T06:51:25;6.90;;;3.47;;
23001;SDS011;11667;51.706;4.856;2022-10-16T06:53:54;6.65;;;3.30;;
23001;SDS011;11667;51.706;4.856;2022-10-16T06:56:26;10.13;;;3.20;;
23001;SDS011;11667;51.706;4.856;2022-10-16T06:58:58;7.80;;;3.05;;
23001;SDS011;11667;51.706;4.856;2022-10-16T07:01:28;7.47;;;3.83;;
23001;SDS011;11667;51.706;4.856;2022-10-16T07:03:58;5.67;;;2.92;;
23001;SDS011;11667;51.706;4.856;2022-10-16T07:06:30;8.68;;;3.20;;
23001;SDS011;11667;51.706;4.856;2022-10-16T07:09:01;4.75;;;3.05;;
23001;SDS011;11667;51.706;4.856;2022-10-16T07:11:32;6.40;;;2.90;;
23001;SDS011;11667;51.706;4.856;2022-10-16T07:14:03;5.33;;;3.10;;
23001;SDS011;11667;51.706;4.856;2022-10-16T07:16:32;8.05;;;3.22;;
23001;SDS011;11667;51.706;4.856;2022-10-16T07:19:02;7.25;;;3.15;;
23001;SDS011;11667;51.706;4.856;2022-10-16T07:21:33;6.78;;;2.98;;
23001;SDS011;11667;51.706;4.856;2022-10-16T07:24:06;6.65;;;3.20;;
23001;SDS011;11667;51.706;4.856;2022-10-16T07:26:41;11.65;;;3.35;;
23001;SDS011;11667;51.706;4.856;2022-10-16T07:29:13;6.58;;;3.17;;
23001;SDS011;11667;51.706;4.856;2022-10-16T07:31:43;5.97;;;3.45;;
23001;SDS011;11667;51.706;4.856;2022-10-16T07:34:14;8.45;;;3.55;;
23001;SDS011;11667;51.706;4.856;2022-10-16T07:36:47;7.20;;;3.40;;
23001;SDS011;11667;51.706;4.856;2022-10-16T07:39:18;9.30;;;3.27;;
23001;SDS011;11667;51.706;4.856;2022-10-16T07:41:48;6.83;;;3.47;;
23001;SDS011;11667;51.706;4.856;2022-10-16T07:44:17;6.70;;;3.35;;
23001;SDS011;11667;51.706;4.856;2022-10-16T07:46:47;10.70;;;3.62;;
23001;SDS011;11667;51.706;4.856;2022-10-16T07:49:16;6.05;;;3.35;;
23001;SDS011;11667;51.706;4.856;2022-10-16T07:51:46;8.60;;;3.75;;
23001;SDS011;11667;51.706;4.856;2022-10-16T07:54:15;8.23;;;3.65;;
23001;SDS011;11667;51.706;4.856;2022-10-16T07:56:44;6.75;;;3.22;;
23001;SDS011;11667;51.706;4.856;2022-10-16T07:59:14;7.65;;;3.25;;
23001;SDS011;11667;51.706;4.856;2022-10-16T08:01:43;7.33;;;3.22;;
23001;SDS011;11667;51.706;4.856;2022-10-16T08:04:13;7.85;;;3.25;;
23001;SDS011;11667;51.706;4.856;2022-10-16T08:06:42;8.35;;;3.33;;
23001;SDS011;11667;51.706;4.856;2022-10-16T08:09:11;5.22;;;2.87;;
23001;SDS011;11667;51.706;4.856;2022-10-16T08:11:41;6.87;;;2.90;;
23001;SDS011;11667;51.706;4.856;2022-10-16T08:14:11;6.33;;;2.83;;
23001;SDS011;11667;51.706;4.856;2022-10-16T08:16:40;7.25;;;3.17;;
23001;SDS011;11667;51.706;4.856;2022-10-16T08:19:10;7.95;;;2.90;;
23001;SDS011;11667;51.706;4.856;2022-10-16T08:21:39;8.58;;;2.83;;
23001;SDS011;11667;51.706;4.856;2022-10-16T08:24:08;8.23;;;2.70;;
23001;SDS011;11667;51.706;4.856;2022-10-16T08:26:38;6.55;;;2.70;;
23001;SDS011;11667;51.706;4.856;2022-10-16T08:29:07;8.23;;;3.05;;
23001;SDS011;11667;51.706;4.856;2022-10-16T08:31:37;7.80;;;2.80;;
23001;SDS011;11667;51.706;4.856;2022-10-16T08:34:06;8.20;;;2.52;;
23001;SDS011;11667;51.706;4.856;2022-10-16T08:36:36;9.58;;;2.50;;
23001;SDS011;11667;51.706;4.856;2022-10-16T08:39:05;7.08;;;2.30;;
23001;SDS011;11667;51.706;4.856;2022-10-16T08:47:17;6.92;;;2.20;;
23001;SDS011;11667;51.706;4.856;2022-10-16T08:50:08;6.08;;;1.90;;
23001;SDS011;11667;51.706;4.856;2022-10-16T08:52:29;6.50;;;1.92;;
23001;SDS011;11667;51.706;4.856;2022-10-16T08:55:01;6.67;;;2.08;;
23001;SDS011;11667;51.706;4.856;2022-10-16T08:57:31;6.90;;;2.20;;
23001;SDS011;11667;51.706;4.856;2022-10-16T09:00:05;6.22;;;2.05;;
23001;SDS011;11667;51.706;4.856;2022-10-16T09:02:45;6.50;;;1.90;;
23001;SDS011;11667;51.706;4.856;2022-10-16T09:16:27;8.43;;;2.25;;
23001;SDS011;11667;51.706;4.856;2022-10-16T09:19:01;6.17;;;1.95;;
23001;SDS011;11667;51.706;4.856;2022-10-16T09:21:40;7.42;;;2.20;;
23001;SDS011;11667;51.706;4.856;2022-10-16T09:24:17;11.05;;;1.92;;
23001;SDS011;11667;51.706;4.856;2022-10-16T09:26:49;10.03;;;2.02;;
23001;SDS011;11667;51.706;4.856;2022-10-16T09:29:20;10.85;;;2.30;;
23001;SDS011;11667;51.706;4.856;2022-10-16T09:31:52;8.55;;;2.00;;
23001;SDS011;11667;51.706;4.856;2022-10-16T09:34:34;10.40;;;2.40;;
23001;SDS011;11667;51.706;4.856;2022-10-16T09:37:08;10.40;;;2.42;;
23001;SDS011;11667;51.706;4.856;2022-10-16T09:39:47;9.10;;;2.00;;
23001;SDS011;11667;51.706;4.856;2022-10-16T09:42:27;10.40;;;2.35;;
23001;SDS011;11667;51.706;4.856;2022-10-16T09:45:19;13.25;;;2.17;;
23001;SDS011;11667;51.706;4.856;2022-10-16T09:47:50;8.88;;;2.20;;
23001;SDS011;11667;51.706;4.856;2022-10-16T09:50:22;8.57;;;2.07;;
23001;SDS011;11667;51.706;4.856;2022-10-16T09:55:32;14.18;;;2.33;;
23001;SDS011;11667;51.706;4.856;2022-10-16T09:58:02;11.10;;;2.42;;
23001;SDS011;11667;51.706;4.856;2022-10-16T10:00:31;8.63;;;1.90;;
23001;SDS011;11667;51.706;4.856;2022-10-16T10:03:00;9.00;;;2.00;;
23001;SDS011;11667;51.706;4.856;2022-10-16T10:05:30;10.55;;;2.27;;
23001;SDS011;11667;51.706;4.856;2022-10-16T10:08:00;10.65;;;2.05;;
23001;SDS011;11667;51.706;4.856;2022-10-16T10:10:33;10.10;;;2.15;;
23001;SDS011;11667;51.706;4.856;2022-10-16T10:13:04;10.72;;;2.30;;
23001;SDS011;11667;51.706;4.856;2022-10-16T10:15:35;10.45;;;2.30;;
23001;SDS011;11667;51.706;4.856;2022-10-16T10:18:16;12.65;;;2.30;;
23001;SDS011;11667;51.706;4.856;2022-10-16T10:20:58;8.88;;;2.22;;
23001;SDS011;11667;51.706;4.856;2022-10-16T10:23:29;10.58;;;2.55;;
23001;SDS011;11667;51.706;4.856;2022-10-16T10:26:05;10.35;;;2.12;;
23001;SDS011;11667;51.706;4.856;2022-10-16T10:28:55;8.38;;;2.08;;
23001;SDS011;11667;51.706;4.856;2022-10-16T10:31:31;16.57;;;2.83;;
23001;SDS011;11667;51.706;4.856;2022-10-16T10:34:11;11.45;;;2.40;;
23001;SDS011;11667;51.706;4.856;2022-10-16T10:37:02;10.98;;;2.45;;
23001;SDS011;11667;51.706;4.856;2022-10-16T10:39:43;10.40;;;2.05;;
23001;SDS011;11667;51.706;4.856;2022-10-16T10:42:31;12.00;;;2.33;;
23001;SDS011;11667;51.706;4.856;2022-10-16T10:45:16;15.53;;;2.20;;
23001;SDS011;11667;51.706;4.856;2022-10-16T10:51:04;15.43;;;2.40;;
23001;SDS011;11667;51.706;4.856;2022-10-16T10:56:47;12.53;;;2.12;;
23001;SDS011;11667;51.706;4.856;2022-10-16T10:59:28;9.75;;;2.15;;
23001;SDS011;11667;51.706;4.856;2022-10-16T11:01:57;13.72;;;2.30;;
23001;SDS011;11667;51.706;4.856;2022-10-16T11:07:26;12.95;;;2.08;;
23001;SDS011;11667;51.706;4.856;2022-10-16T11:10:04;11.10;;;2.30;;
23001;SDS011;11667;51.706;4.856;2022-10-16T11:12:39;10.75;;;2.40;;
23001;SDS011;11667;51.706;4.856;2022-10-16T11:15:18;10.72;;;2.15;;
23001;SDS011;11667;51.706;4.856;2022-10-16T11:20:26;12.33;;;2.27;;
23001;SDS011;11667;51.706;4.856;2022-10-16T11:23:17;9.98;;;2.30;;
23001;SDS011;11667;51.706;4.856;2022-10-16T11:50:06;11.25;;;2.33;;
23001;SDS011;11667;51.706;4.856;2022-10-16T11:52:46;10.75;;;1.90;;
23001;SDS011;11667;51.706;4.856;2022-10-16T11:55:23;11.10;;;2.33;;
23001;SDS011;11667;51.706;4.856;2022-10-16T11:58:01;12.03;;;2.17;;
23001;SDS011;11667;51.706;4.856;2022-10-16T12:00:43;14.00;;;2.47;;
23001;SDS011;11667;51.706;4.856;2022-10-16T12:09:01;12.05;;;2.45;;
23001;SDS011;11667;51.706;4.856;2022-10-16T12:11:33;11.22;;;2.00;;
23001;SDS011;11667;51.706;4.856;2022-10-16T12:14:05;15.78;;;2.30;;
23001;SDS011;11667;51.706;4.856;2022-10-16T12:16:53;9.18;;;2.25;;
23001;SDS011;11667;51.706;4.856;2022-10-16T12:19:29;11.25;;;2.20;;
23001;SDS011;11667;51.706;4.856;2022-10-16T12:22:00;13.18;;;2.20;;
23001;SDS011;11667;51.706;4.856;2022-10-16T12:24:33;12.25;;;2.12;;
23001;SDS011;11667;51.706;4.856;2022-10-16T12:27:04;10.95;;;2.17;;
23001;SDS011;11667;51.706;4.856;2022-10-16T12:29:37;12.65;;;2.20;;
23001;SDS011;11667;51.706;4.856;2022-10-16T12:32:27;11.33;;;2.30;;
23001;SDS011;11667;51.706;4.856;2022-10-16T12:34:57;12.50;;;2.00;;
23001;SDS011;11667;51.706;4.856;2022-10-16T12:37:37;14.95;;;2.37;;
23001;SDS011;11667;51.706;4.856;2022-10-16T12:42:52;10.08;;;1.85;;
23001;SDS011;11667;51.706;4.856;2022-10-16T12:45:28;11.68;;;2.47;;
23001;SDS011;11667;51.706;4.856;2022-10-16T12:48:18;11.45;;;2.20;;
23001;SDS011;11667;51.706;4.856;2022-10-16T12:50:38;13.72;;;2.47;;
23001;SDS011;11667;51.706;4.856;2022-10-16T12:53:19;10.38;;;2.08;;
23001;SDS011;11667;51.706;4.856;2022-10-16T12:56:04;15.30;;;2.05;;
23001;SDS011;11667;51.706;4.856;2022-10-16T12:58:50;10.60;;;2.50;;
23001;SDS011;11667;51.706;4.856;2022-10-16T13:01:25;11.38;;;2.45;;
23001;SDS011;11667;51.706;4.856;2022-10-16T13:04:06;15.48;;;2.50;;
23001;SDS011;11667;51.706;4.856;2022-10-16T13:06:39;11.33;;;2.17;;
23001;SDS011;11667;51.706;4.856;2022-10-16T13:09:25;13.95;;;2.40;;
23001;SDS011;11667;51.706;4.856;2022-10-16T13:17:42;15.23;;;2.37;;
23001;SDS011;11667;51.706;4.856;2022-10-16T13:20:27;18.55;;;3.00;;
23001;SDS011;11667;51.706;4.856;2022-10-16T13:23:19;13.28;;;2.87;;
23001;SDS011;11667;51.706;4.856;2022-10-16T13:26:09;13.22;;;2.58;;
23001;SDS011;11667;51.706;4.856;2022-10-16T13:28:47;17.95;;;2.90;;
23001;SDS011;11667;51.706;4.856;2022-10-16T13:31:22;16.05;;;3.08;;
23001;SDS011;11667;51.706;4.856;2022-10-16T13:33:53;13.88;;;2.65;;
23001;SDS011;11667;51.706;4.856;2022-10-16T13:36:27;14.50;;;2.70;;
23001;SDS011;11667;51.706;4.856;2022-10-16T13:41:36;15.45;;;2.60;;
23001;SDS011;11667;51.706;4.856;2022-10-16T13:44:10;9.48;;;2.47;;
23001;SDS011;11667;51.706;4.856;2022-10-16T13:46:41;14.10;;;2.62;;
23001;SDS011;11667;51.706;4.856;2022-10-16T13:49:12;11.48;;;2.50;;
23001;SDS011;11667;51.706;4.856;2022-10-16T13:51:58;14.13;;;2.60;;
23001;SDS011;11667;51.706;4.856;2022-10-16T13:54:28;10.20;;;2.30;;
23001;SDS011;11667;51.706;4.856;2022-10-16T13:57:04;15.00;;;2.60;;
23001;SDS011;11667;51.706;4.856;2022-10-16T13:59:37;13.38;;;2.52;;
23001;SDS011;11667;51.706;4.856;2022-10-16T14:02:26;11.57;;;2.37;;
23001;SDS011;11667;51.706;4.856;2022-10-16T14:04:58;14.00;;;2.50;;
23001;SDS011;11667;51.706;4.856;2022-10-16T14:07:28;12.78;;;2.20;;
23001;SDS011;11667;51.706;4.856;2022-10-16T14:10:01;14.60;;;2.52;;
23001;SDS011;11667;51.706;4.856;2022-10-16T14:12:34;15.53;;;2.67;;
23001;SDS011;11667;51.706;4.856;2022-10-16T14:15:05;16.45;;;2.67;;
23001;SDS011;11667;51.706;4.856;2022-10-16T14:17:48;19.73;;;3.05;;
23001;SDS011;11667;51.706;4.856;2022-10-16T14:20:12;12.70;;;2.30;;
23001;SDS011;11667;51.706;4.856;2022-10-16T14:22:43;14.75;;;2.67;;
23001;SDS011;11667;51.706;4.856;2022-10-16T14:25:21;17.92;;;3.20;;
23001;SDS011;11667;51.706;4.856;2022-10-16T14:28:01;11.38;;;2.77;;
23001;SDS011;11667;51.706;4.856;2022-10-16T14:30:29;8.83;;;2.50;;
23001;SDS011;11667;51.706;4.856;2022-10-16T14:33:02;9.43;;;2.50;;
23001;SDS011;11667;51.706;4.856;2022-10-16T14:35:37;9.43;;;2.20;;
23001;SDS011;11667;51.706;4.856;2022-10-16T14:38:16;14.73;;;2.40;;
23001;SDS011;11667;51.706;4.856;2022-10-16T14:40:45;12.40;;;2.55;;
23001;SDS011;11667;51.706;4.856;2022-10-16T14:43:24;10.95;;;4.10;;
23001;SDS011;11667;51.706;4.856;2022-10-16T14:46:01;12.37;;;3.75;;
23001;SDS011;11667;51.706;4.856;2022-10-16T14:48:32;9.43;;;3.02;;
23001;SDS011;11667;51.706;4.856;2022-10-16T14:51:05;10.08;;;2.83;;
23001;SDS011;11667;51.706;4.856;2022-10-16T14:53:36;10.65;;;2.65;;
23001;SDS011;11667;51.706;4.856;2022-10-16T14:56:06;13.53;;;2.87;;
23001;SDS011;11667;51.706;4.856;2022-10-16T14:58:37;16.87;;;3.90;;
23001;SDS011;11667;51.706;4.856;2022-10-16T15:01:07;10.98;;;2.50;;
23001;SDS011;11667;51.706;4.856;2022-10-16T15:03:39;8.73;;;2.95;;
23001;SDS011;11667;51.706;4.856;2022-10-16T15:06:13;13.13;;;3.52;;
23001;SDS011;11667;51.706;4.856;2022-10-16T15:08:43;13.38;;;4.70;;
23001;SDS011;11667;51.706;4.856;2022-10-16T15:11:14;12.53;;;4.60;;
23001;SDS011;11667;51.706;4.856;2022-10-16T15:13:45;14.93;;;5.00;;
23001;SDS011;11667;51.706;4.856;2022-10-16T15:16:15;11.73;;;3.80;;
23001;SDS011;11667;51.706;4.856;2022-10-16T15:18:45;9.43;;;2.50;;
23001;SDS011;11667;51.706;4.856;2022-10-16T15:21:28;14.13;;;2.85;;
23001;SDS011;11667;51.706;4.856;2022-10-16T15:23:59;13.32;;;3.00;;
23001;SDS011;11667;51.706;4.856;2022-10-16T15:26:29;11.45;;;2.52;;
23001;SDS011;11667;51.706;4.856;2022-10-16T15:28:58;11.70;;;3.10;;
23001;SDS011;11667;51.706;4.856;2022-10-16T15:31:28;10.40;;;2.70;;
23001;SDS011;11667;51.706;4.856;2022-10-16T15:33:57;12.58;;;2.90;;
23001;SDS011;11667;51.706;4.856;2022-10-16T15:36:28;7.28;;;2.25;;
23001;SDS011;11667;51.706;4.856;2022-10-16T15:39:02;9.10;;;2.92;;
23001;SDS011;11667;51.706;4.856;2022-10-16T15:41:35;8.58;;;3.65;;
23001;SDS011;11667;51.706;4.856;2022-10-16T15:44:05;7.35;;;3.40;;
23001;SDS011;11667;51.706;4.856;2022-10-16T15:46:35;11.93;;;3.70;;
23001;SDS011;11667;51.706;4.856;2022-10-16T15:49:04;12.10;;;3.60;;
23001;SDS011;11667;51.706;4.856;2022-10-16T15:51:34;11.15;;;2.60;;
23001;SDS011;11667;51.706;4.856;2022-10-16T15:54:08;9.85;;;2.80;;
23001;SDS011;11667;51.706;4.856;2022-10-16T15:56:38;10.88;;;2.80;;
23001;SDS011;11667;51.706;4.856;2022-10-16T15:59:07;9.05;;;2.77;;
23001;SDS011;11667;51.706;4.856;2022-10-16T16:01:37;8.85;;;3.10;;
23001;SDS011;11667;51.706;4.856;2022-10-16T16:04:06;7.33;;;2.90;;
23001;SDS011;11667;51.706;4.856;2022-10-16T16:06:38;12.73;;;2.92;;
23001;SDS011;11667;51.706;4.856;2022-10-16T16:09:08;8.48;;;3.05;;
23001;SDS011;11667;51.706;4.856;2022-10-16T16:11:39;9.98;;;3.10;;
23001;SDS011;11667;51.706;4.856;2022-10-16T16:14:12;10.13;;;2.98;;
23001;SDS011;11667;51.706;4.856;2022-10-16T16:16:42;7.92;;;2.67;;
23001;SDS011;11667;51.706;4.856;2022-10-16T16:19:11;14.33;;;3.50;;
23001;SDS011;11667;51.706;4.856;2022-10-16T16:21:42;9.78;;;3.70;;
23001;SDS011;11667;51.706;4.856;2022-10-16T16:24:12;9.20;;;3.60;;
23001;SDS011;11667;51.706;4.856;2022-10-16T16:26:41;10.80;;;3.58;;
23001;SDS011;11667;51.706;4.856;2022-10-16T16:29:11;11.18;;;3.30;;
23001;SDS011;11667;51.706;4.856;2022-10-16T16:31:42;11.97;;;3.62;;
23001;SDS011;11667;51.706;4.856;2022-10-16T16:34:13;13.35;;;3.70;;
23001;SDS011;11667;51.706;4.856;2022-10-16T16:36:43;8.40;;;3.55;;